Time;durP1;ratioP1;P1;durP2;ratioP2;P2;SDS_P1;SDS_P2;PMS_P1;PMS_P2;Temp;Humidity;BMP_temperature;BMP_pressure;BME280_temperature;BME280_humidity;BME280_pressure;Samples;Min_cycle;Max_cycle;Signal;HPM_P1;HPM_P2
2024/04/25 00:01:48;;;;;;;2.40;2.20;;;;;;;7.26;100.00;99652.44;5473370;26;20309;-76
2024/04/25 00:04:14;;;;;;;2.30;1.95;;;;;;;7.29;100.00;99646.56;5495145;26;20314;-76
2024/04/25 00:06:39;;;;;;;3.25;2.10;;;;;;;7.24;100.00;99643.78;5495632;25;20302;-76
2024/04/25 00:09:05;;;;;;;2.45;2.25;;;;;;;7.23;100.00;99651.06;5482516;26;20350;-76
2024/04/25 00:11:30;;;;;;;3.80;2.40;;;;;;;7.22;100.00;99637.81;5492498;26;20302;-77
2024/04/25 00:13:56;;;;;;;4.77;2.20;;;;;;;7.16;100.00;99641.47;5492039;26;20773;-76
2024/04/25 00:16:21;;;;;;;4.43;2.60;;;;;;;7.15;100.00;99640.66;5497197;25;20665;-76
2024/04/25 00:18:46;;;;;;;3.03;2.30;;;;;;;7.15;100.00;99640.66;5492825;26;20326;-76
2024/04/25 00:21:11;;;;;;;2.30;1.92;;;;;;;7.19;100.00;99639.13;5492340;26;20801;-76
2024/04/25 00:23:37;;;;;;;3.73;2.23;;;;;;;7.25;100.00;99631.94;5493913;26;20310;-76
2024/04/25 00:26:02;;;;;;;3.03;2.20;;;;;;;7.21;100.00;99630.81;5499129;26;20472;-76
2024/04/25 00:28:28;;;;;;;5.30;2.27;;;;;;;7.21;100.00;99634.28;5488727;26;20310;-76
2024/04/25 00:30:54;;;;;;;5.80;2.38;;;;;;;7.27;100.00;99629.81;5489721;26;20837;-76
2024/04/25 00:33:19;;;;;;;3.85;2.38;;;;;;;7.30;100.00;99634.72;5459613;26;20392;-76
2024/04/25 00:35:45;;;;;;;4.07;2.07;;;;;;;7.27;100.00;99632.53;5494499;26;20367;-76
2024/04/25 00:38:10;;;;;;;2.93;2.33;;;;;;;7.24;100.00;99638.41;5490504;26;20752;-76
2024/04/25 00:40:35;;;;;;;4.13;2.23;;;;;;;7.25;100.00;99630.06;5491944;26;20306;-76
2024/04/25 00:43:03;;;;;;;3.77;2.30;;;;;;;7.23;100.00;99629.50;5493960;26;20351;-76
2024/04/25 00:45:28;;;;;;;3.88;2.30;;;;;;;7.21;100.00;99628.91;5494621;26;20306;-76
2024/04/25 00:47:53;;;;;;;3.33;2.40;;;;;;;7.22;100.00;99624.34;5480584;26;20316;-76
2024/04/25 00:50:19;;;;;;;2.38;2.17;;;;;;;7.21;100.00;99622.72;5473802;26;20341;-76
2024/04/25 00:52:45;;;;;;;5.35;2.97;;;;;;;7.20;100.00;99621.91;5492524;26;20315;-76
2024/04/25 00:55:11;;;;;;;8.80;3.03;;;;;;;7.19;100.00;99633.72;5494422;26;20346;-76
2024/04/25 00:57:37;;;;;;;4.50;2.50;;;;;;;7.21;100.00;99622.72;5492559;26;20880;-76
2024/04/25 01:00:03;;;;;;;3.40;2.70;;;;;;;7.21;100.00;99625.41;5493818;26;20329;-76
2024/04/25 01:02:31;;;;;;;4.47;2.65;;;;;;;7.16;100.00;99631.53;5485921;26;20325;-76
2024/04/25 01:04:59;;;;;;;6.22;2.65;;;;;;;7.17;100.00;99630.47;5479765;26;20318;-76
2024/04/25 01:07:25;;;;;;;2.95;2.50;;;;;;;7.22;100.00;99624.34;5454934;26;20427;-76
2024/04/25 01:09:50;;;;;;;3.40;2.93;;;;;;;7.25;100.00;99619.28;5490711;26;20358;-76
2024/04/25 01:12:17;;;;;;;6.33;2.80;;;;;;;7.25;100.00;99623.84;5493438;26;20800;-76
2024/04/25 01:14:43;;;;;;;4.40;2.53;;;;;;;7.23;100.00;99620.59;5493515;26;20306;-76
2024/04/25 01:17:08;;;;;;;5.95;2.80;;;;;;;7.19;100.00;99622.94;5482497;26;20312;-76
2024/04/25 01:19:33;;;;;;;6.63;2.70;;;;;;;7.20;100.00;99619.19;5490832;26;20342;-76
2024/04/25 01:21:58;;;;;;;6.57;2.87;;;;;;;7.18;100.00;99613.22;5504672;26;20302;-76
2024/04/25 01:24:29;;;;;;;5.67;3.20;;;;;;;7.15;100.00;99612.88;5487040;26;20319;-76
2024/04/25 01:26:59;;;;;;;4.15;3.00;;;;;;;7.11;100.00;99607.16;5515548;26;20315;-76
2024/04/25 01:29:26;;;;;;;4.55;2.72;;;;;;;7.18;100.00;99605.13;5504049;26;20353;-76
2024/04/25 01:31:52;;;;;;;4.73;2.60;;;;;;;7.22;100.00;99605.47;5512226;26;20323;-76
2024/04/25 01:34:18;;;;;;;4.63;2.95;;;;;;;7.22;100.00;99600.91;5495168;26;20324;-76
2024/04/25 01:36:44;;;;;;;5.32;2.92;;;;;;;7.20;100.00;99597.66;5517214;25;20953;-75
2024/04/25 01:39:10;;;;;;;3.42;2.70;;;;;;;7.14;100.00;99598.63;5505308;25;20654;-76
2024/04/25 01:41:35;;;;;;;6.47;2.92;;;;;;;7.09;100.00;99595.00;5513995;26;20822;-75
2024/04/25 01:44:01;;;;;;;9.17;3.27;;;;;;;7.06;100.00;99598.19;5516800;25;20477;-76
2024/04/25 01:46:26;;;;;;;4.60;2.93;;;;;;;7.13;100.00;99598.84;5516885;25;20319;-76
2024/04/25 01:48:51;;;;;;;7.00;2.90;;;;;;;7.11;100.00;99593.69;5477522;25;20321;-75
2024/04/25 01:51:21;;;;;;;3.70;2.85;;;;;;;7.10;100.00;99586.69;5468498;26;20310;-75
2024/04/25 01:53:47;;;;;;;4.50;3.10;;;;;;;7.08;100.00;99599.56;5516965;25;20367;-76
2024/04/25 01:56:12;;;;;;;6.80;3.10;;;;;;;7.08;100.00;99591.50;5498104;25;20415;-76
2024/04/25 01:58:38;;;;;;;6.68;3.28;;;;;;;7.05;100.00;99583.91;5466559;26;20329;-75
2024/04/25 02:01:03;;;;;;;5.90;3.17;;;;;;;7.08;100.00;99582.63;5512804;26;20865;-75
2024/04/25 02:03:29;;;;;;;5.90;2.80;;;;;;;7.10;100.00;99591.25;5516549;25;20736;-76
2024/04/25 02:05:54;;;;;;;5.55;3.30;;;;;;;7.07;100.00;99586.38;5514767;26;20814;-76
2024/04/25 02:08:20;;;;;;;5.90;3.10;;;;;;;7.13;100.00;99585.38;5510659;26;20316;-76
2024/04/25 02:10:45;;;;;;;7.37;3.40;;;;;;;7.17;100.00;99584.66;5510540;26;20688;-76
2024/04/25 02:13:11;;;;;;;5.40;3.23;;;;;;;7.15;100.00;99589.47;5513152;26;20327;-76
2024/04/25 02:15:36;;;;;;;4.82;2.90;;;;;;;7.12;100.00;99589.13;5514582;26;20324;-76
2024/04/25 02:18:01;;;;;;;5.50;3.17;;;;;;;7.13;100.00;99582.69;5475740;26;20691;-76
2024/04/25 02:26:02;;;;;;;5.55;3.17;;;;;;;7.07;100.00;99576.41;5514704;26;20843;-76
2024/04/25 02:28:27;;;;;;;7.07;3.13;;;;;;;7.09;100.00;99578.84;5470011;26;20320;-76
2024/04/25 02:30:52;;;;;;;6.25;3.58;;;;;;;7.09;100.00;99574.28;5506191;26;20416;-76
2024/04/25 02:33:18;;;;;;;6.10;3.47;;;;;;;7.08;100.00;99579.91;5501725;25;20367;-76
2024/04/25 02:35:43;;;;;;;6.65;3.35;;;;;;;7.07;100.00;99575.59;5514261;25;20656;-76
2024/04/25 02:38:08;;;;;;;5.90;3.23;;;;;;;7.07;100.00;99576.41;5507651;26;20310;-76
2024/04/25 02:40:33;;;;;;;5.00;3.90;;;;;;;7.04;100.00;99582.28;5512470;26;20316;-76
2024/04/25 02:42:59;;;;;;;3.73;3.33;;;;;;;7.05;100.00;99578.50;5515999;25;20794;-76
2024/04/25 02:45:24;;;;;;;6.73;3.40;;;;;;;7.06;100.00;99576.63;5515149;25;20312;-76
2024/04/25 02:47:49;;;;;;;5.40;3.33;;;;;;;7.06;100.00;99577.47;5482059;25;20348;-76
2024/04/25 02:50:14;;;;;;;6.80;3.93;;;;;;;7.03;100.00;99572.56;5511769;26;20314;-76
2024/04/25 02:52:40;;;;;;;4.93;3.40;;;;;;;7.00;100.00;99577.63;5513897;26;20308;-76
2024/04/25 02:55:05;;;;;;;7.90;3.40;;;;;;;7.06;100.00;99582.03;5479718;26;20866;-76
2024/04/25 02:57:31;;;;;;;10.00;3.53;;;;;;;7.05;100.00;99578.50;5504089;26;20408;-76
2024/04/25 02:59:56;;;;;;;5.13;3.40;;;;;;;7.06;100.00;99587.41;5510017;26;20334;-76
2024/04/25 03:02:21;;;;;;;4.68;3.40;;;;;;;7.08;100.00;99588.00;5512775;26;20315;-76
2024/04/25 03:04:47;;;;;;;7.67;3.67;;;;;;;7.08;100.00;99585.31;5494835;26;20794;-76
2024/04/25 03:07:12;;;;;;;3.70;3.40;;;;;;;7.08;100.00;99580.72;5515435;25;20761;-76
2024/04/25 03:09:38;;;;;;;5.83;3.77;;;;;;;7.08;100.00;99583.41;5508625;26;20432;-76
2024/04/25 03:12:03;;;;;;;6.23;3.50;;;;;;;7.07;100.00;99581.78;5514759;26;20886;-76
2024/04/25 03:14:28;;;;;;;6.82;4.07;;;;;;;7.08;100.00;99578.00;5494632;25;20316;-76
2024/04/25 03:16:54;;;;;;;8.63;4.67;;;;;;;7.05;100.00;99577.69;5515454;25;20311;-76
2024/04/25 03:19:20;;;;;;;7.40;3.73;;;;;;;7.08;100.00;99569.16;5496315;25;20323;-76
2024/04/25 03:21:45;;;;;;;5.60;3.27;;;;;;;7.09;100.00;99574.28;5497349;26;20334;-76
2024/04/25 03:24:10;;;;;;;5.60;3.47;;;;;;;7.07;100.00;99562.13;5513341;26;20323;-76
2024/04/25 03:26:36;;;;;;;5.03;4.10;;;;;;;7.09;100.00;99574.28;5515178;25;20415;-76
2024/04/25 03:29:01;;;;;;;5.45;3.97;;;;;;;7.09;100.00;99574.28;5505014;25;20383;-76
2024/04/25 03:31:26;;;;;;;6.90;4.20;;;;;;;7.09;100.00;99573.44;5530212;25;20349;-76
2024/04/25 03:33:52;;;;;;;6.40;3.73;;;;;;;7.04;100.00;99558.03;5491490;25;20312;-76
2024/04/25 03:36:17;;;;;;;5.80;3.87;;;;;;;7.06;100.00;99563.16;5518817;25;20409;-76
2024/04/25 03:38:42;;;;;;;7.80;4.60;;;;;;;7.04;100.00;99562.59;5484730;25;20365;-76
2024/04/25 03:41:14;;;;;;;6.87;4.27;;;;;;;7.02;100.00;99567.41;5511787;26;20318;-76
2024/04/25 03:43:39;;;;;;;6.30;4.75;;;;;;;7.04;100.00;99568.00;5477075;26;20408;-76
2024/04/25 03:46:05;;;;;;;10.10;4.30;;;;;;;7.05;100.00;99567.72;5504172;25;20327;-76
2024/04/25 03:48:31;;;;;;;6.10;4.05;;;;;;;7.00;100.00;99569.53;5503793;26;20862;-76
2024/04/25 03:50:56;;;;;;;5.60;4.17;;;;;;;7.01;100.00;99573.88;5511367;26;20337;-76
2024/04/25 03:53:22;;;;;;;7.73;3.93;;;;;;;7.03;100.00;99575.25;5515355;26;20324;-76
2024/04/25 03:55:47;;;;;;;10.20;4.00;;;;;;;7.06;100.00;99571.25;5495959;26;20802;-76
2024/04/25 03:58:13;;;;;;;6.93;4.27;;;;;;;7.04;100.00;99570.69;5516536;26;20319;-76
2024/04/25 04:00:38;;;;;;;7.27;4.30;;;;;;;7.06;100.00;99582.84;5513475;25;20409;-76
2024/04/25 04:03:03;;;;;;;7.75;4.53;;;;;;;7.08;100.00;99579.91;5499531;26;20807;-76
2024/04/25 04:05:29;;;;;;;5.63;4.20;;;;;;;7.03;100.00;99574.44;5480041;26;20417;-76
2024/04/25 04:07:54;;;;;;;13.00;4.47;;;;;;;7.04;100.00;99578.75;5502569;25;20480;-76
2024/04/25 04:10:19;;;;;;;7.03;4.20;;;;;;;7.02;100.00;99578.16;5464181;26;20329;-76
2024/04/25 04:12:45;;;;;;;8.17;4.30;;;;;;;7.00;100.00;99583.81;5487261;26;20799;-76
2024/04/25 04:15:10;;;;;;;5.43;3.70;;;;;;;6.96;100.00;99571.06;5459569;26;20320;-76
2024/04/25 04:17:35;;;;;;;6.90;3.93;;;;;;;6.98;100.00;99590.53;5491485;26;20300;-76
2024/04/25 04:20:00;;;;;;;5.70;3.92;;;;;;;6.96;100.00;99579.16;5517505;25;20672;-76
2024/04/25 04:22:26;;;;;;;6.87;3.93;;;;;;;6.99;100.00;99584.88;5480858;26;20328;-76
2024/04/25 04:24:51;;;;;;;4.63;3.67;;;;;;;6.99;100.00;99582.19;5465665;26;20512;-76
2024/04/25 04:27:16;;;;;;;6.53;4.03;;;;;;;6.95;100.00;99575.63;5480316;26;20305;-76
2024/04/25 04:29:41;;;;;;;8.73;4.13;;;;;;;6.96;100.00;99571.06;5480714;26;20844;-76
2024/04/25 04:32:07;;;;;;;5.83;4.27;;;;;;;6.96;100.00;99579.16;5502049;26;20306;-76
2024/04/25 04:34:32;;;;;;;7.20;4.37;;;;;;;6.98;100.00;99571.66;5458366;26;20439;-76
2024/04/25 04:36:57;;;;;;;8.70;4.27;;;;;;;6.99;100.00;99574.09;5468260;26;20676;-76
2024/04/25 04:39:23;;;;;;;6.63;3.53;;;;;;;6.98;100.00;99577.03;5493300;26;20324;-76
2024/04/25 04:41:48;;;;;;;10.63;5.47;;;;;;;6.98;100.00;99572.44;5514057;25;20403;-76
2024/04/25 04:44:14;;;;;;;11.97;5.27;;;;;;;6.95;100.00;99581.03;5490997;26;20309;-76
2024/04/25 04:46:40;;;;;;;8.23;4.15;;;;;;;6.95;100.00;99580.22;5485960;26;20304;-76
2024/04/25 04:49:05;;;;;;;7.47;4.43;;;;;;;6.94;100.00;99579.41;5492238;26;20323;-75
2024/04/25 04:51:30;;;;;;;6.25;3.58;;;;;;;6.98;100.00;99585.13;5508422;25;20371;-76
2024/04/25 04:53:56;;;;;;;7.67;4.20;;;;;;;6.99;100.00;99584.88;5491638;25;20401;-76
2024/04/25 04:56:21;;;;;;;10.17;4.10;;;;;;;6.96;100.00;99585.34;5488859;26;20340;-76
2024/04/25 04:58:47;;;;;;;11.10;4.20;;;;;;;6.89;100.00;99589.25;5483016;25;20371;-76
2024/04/25 05:01:12;;;;;;;5.95;3.80;;;;;;;6.90;100.00;99586.34;5502806;26;20316;-76
2024/04/25 05:03:37;;;;;;;9.13;3.60;;;;;;;6.93;100.00;99588.53;5477156;26;20313;-76
2024/04/25 05:06:03;;;;;;;8.27;4.40;;;;;;;6.90;100.00;99588.19;5477736;26;20336;-75
2024/04/25 05:08:31;;;;;;;8.73;4.27;;;;;;;6.93;100.00;99596.63;5487247;26;20359;-76
2024/04/25 05:10:57;;;;;;;8.43;3.85;;;;;;;6.91;100.00;99598.75;5500640;26;20319;-75
2024/04/25 05:13:22;;;;;;;7.72;4.03;;;;;;;6.95;100.00;99596.38;5490686;25;20345;-75
2024/04/25 05:15:48;;;;;;;8.10;3.55;;;;;;;6.95;100.00;99599.88;5501068;26;20321;-76
2024/04/25 05:18:13;;;;;;;8.05;3.97;;;;;;;6.98;100.00;99604.78;5517222;25;20398;-76
2024/04/25 05:20:38;;;;;;;15.90;9.90;;;;;;;7.01;100.00;99603.50;5470823;25;21124;-76
2024/04/25 05:23:04;;;;;;;26.30;13.43;;;;;;;7.05;100.00;99608.13;5468470;26;20482;-76
2024/04/25 05:25:30;;;;;;;18.83;11.53;;;;;;;7.06;100.00;99612.47;5463956;26;22554;-76
2024/04/25 05:27:55;;;;;;;9.32;5.90;;;;;;;7.02;100.00;99607.81;5472135;25;20363;-74
2024/04/25 05:30:22;;;;;;;10.10;4.80;;;;;;;7.00;100.00;99615.31;5473103;26;20315;-76
2024/04/25 05:32:49;;;;;;;10.73;4.68;;;;;;;7.01;100.00;99603.50;5468149;26;20354;-76
2024/04/25 05:35:14;;;;;;;8.83;4.60;;;;;;;7.04;100.00;99608.41;5484819;26;20358;-77
2024/04/25 05:37:39;;;;;;;5.43;4.50;;;;;;;7.01;100.00;99606.19;5478834;26;20325;-76
2024/04/25 05:40:06;;;;;;;10.52;5.35;;;;;;;7.06;100.00;99604.41;5485656;26;20323;-77
2024/04/25 05:42:31;;;;;;;6.68;4.68;;;;;;;7.06;100.00;99604.41;5489948;26;20322;-76
2024/04/25 05:44:57;;;;;;;11.33;5.37;;;;;;;7.05;100.00;99608.13;5497927;26;20347;-76
2024/04/25 05:47:22;;;;;;;7.47;4.53;;;;;;;7.09;100.00;99605.78;5513025;26;20343;-76
2024/04/25 05:49:49;;;;;;;10.67;4.77;;;;;;;7.09;100.00;99603.09;5516190;25;20320;-76
2024/04/25 05:52:14;;;;;;;11.43;5.40;;;;;;;7.11;100.00;99609.84;5478902;26;20325;-76
2024/04/25 05:54:40;;;;;;;12.33;4.77;;;;;;;7.11;100.00;99606.38;5459851;26;20373;-76
2024/04/25 05:57:05;;;;;;;7.57;5.17;;;;;;;7.09;100.00;99601.22;5483828;26;20403;-76
2024/04/25 05:59:30;;;;;;;15.63;7.30;;;;;;;7.10;100.00;99610.13;5488349;25;20348;-76
2024/04/25 06:01:58;;;;;;;12.95;5.65;;;;;;;7.16;100.00;99617.22;5492714;26;20720;-76
2024/04/25 06:04:24;;;;;;;10.68;5.03;;;;;;;7.17;100.00;99614.31;5513216;25;20342;-76
2024/04/25 06:06:49;;;;;;;13.35;5.15;;;;;;;7.17;100.00;99614.31;5475054;26;20326;-76
2024/04/25 06:09:14;;;;;;;8.23;4.10;;;;;;;7.19;100.00;99620.25;5479167;25;20347;-76
2024/04/25 06:11:39;;;;;;;6.40;4.53;;;;;;;7.23;100.00;99610.63;5474681;26;20466;-76
2024/04/25 06:14:05;;;;;;;16.57;8.57;;;;;;;7.32;100.00;99619.13;5486073;26;20314;-75
2024/04/25 06:16:30;;;;;;;17.05;9.15;;;;;;;7.32;100.00;99613.72;5493116;26;20305;-76
2024/04/25 06:18:55;;;;;;;13.13;6.87;;;;;;;7.34;100.00;99613.50;5506641;26;20374;-76
2024/04/25 06:21:20;;;;;;;14.73;4.82;;;;;;;7.38;100.00;99617.31;5493808;25;20359;-76
2024/04/25 06:23:46;;;;;;;9.30;5.00;;;;;;;7.42;100.00;99616.59;5460999;26;20325;-76
2024/04/25 06:26:11;;;;;;;8.55;4.63;;;;;;;7.47;100.00;99621.25;5461699;26;20692;-76
2024/04/25 06:28:38;;;;;;;7.30;4.47;;;;;;;7.50;100.00;99620.78;5474873;26;20686;-76
2024/04/25 06:31:04;;;;;;;9.73;5.10;;;;;;;7.55;100.00;99621.66;5476133;26;20316;-76
2024/04/25 06:33:29;;;;;;;8.53;5.20;;;;;;;7.61;100.00;99619.84;5467187;26;20365;-77
2024/04/25 06:35:54;;;;;;;8.20;4.40;;;;;;;7.66;100.00;99617.25;5472584;26;20471;-77
2024/04/25 06:38:19;;;;;;;8.80;4.67;;;;;;;7.74;100.00;99619.50;5479621;26;20424;-76
2024/04/25 06:40:45;;;;;;;9.93;4.70;;;;;;;7.79;100.00;99627.69;5515970;25;20304;-76
2024/04/25 06:43:11;;;;;;;9.55;4.60;;;;;;;7.79;100.00;99627.69;5485591;25;20312;-78
2024/04/25 06:45:39;;;;;;;12.30;5.70;;;;;;;7.79;100.00;99630.41;5472437;26;20377;-77
2024/04/25 06:48:08;;;;;;;9.23;4.38;;;;;;;7.75;100.00;99627.38;5487513;26;20413;-77
2024/04/25 06:50:34;;;;;;;11.93;5.32;;;;;;;7.77;100.00;99629.84;5494142;25;20654;-77
2024/04/25 06:52:59;;;;;;;8.40;5.33;;;;;;;7.79;100.00;99627.69;5502028;25;20328;-77
2024/04/25 06:55:24;;;;;;;11.20;5.30;;;;;;;7.82;100.00;99627.22;5504682;25;20352;-76
2024/04/25 06:57:50;;;;;;;8.33;4.77;;;;;;;7.82;100.00;99635.28;5509100;26;20711;-76
2024/04/25 07:00:15;;;;;;;13.47;5.83;;;;;;;7.89;100.00;99621.63;5515666;26;20797;-77
2024/04/25 07:02:40;;;;;;;9.90;5.10;;;;;;;7.93;100.00;99623.59;5510368;26;20324;-76
2024/04/25 07:05:06;;;;;;;8.60;5.30;;;;;;;7.96;100.00;99620.41;5489292;26;20333;-77
2024/04/25 07:07:32;;;;;;;11.43;5.63;;;;;;;7.97;100.00;99622.03;5499619;26;20345;-77
2024/04/25 07:09:58;;;;;;;9.95;5.28;;;;;;;8.01;100.00;99615.06;5510052;26;20376;-77
2024/04/25 07:12:23;;;;;;;9.93;5.10;;;;;;;8.09;100.00;99617.34;5480135;26;20318;-76
2024/04/25 07:14:48;;;;;;;8.70;5.30;;;;;;;8.16;100.00;99617.19;5501411;26;20405;-77
2024/04/25 07:17:14;;;;;;;10.68;4.85;;;;;;;8.22;100.00;99617.00;5490640;26;20812;-77
2024/04/25 07:19:39;;;;;;;11.63;6.23;;;;;;;8.28;100.00;99617.91;5485336;26;20320;-77
2024/04/25 07:22:04;;;;;;;12.47;6.67;;;;;;;8.31;100.00;99620.91;5481939;26;20352;-77
2024/04/25 07:24:29;;;;;;;14.63;6.80;;;;;;;8.29;100.00;99614.16;5502595;25;20807;-77
2024/04/25 07:26:56;;;;;;;14.48;6.18;;;;;;;8.18;100.00;99618.56;5504759;26;20312;-77
2024/04/25 07:29:21;;;;;;;10.95;5.78;;;;;;;8.19;100.00;99619.38;5512879;26;20306;-77
2024/04/25 07:31:47;;;;;;;11.32;6.50;;;;;;;8.25;100.00;99613.78;5495029;25;20346;-77
2024/04/25 07:34:12;;;;;;;13.33;5.37;;;;;;;8.37;100.00;99619.09;5517006;26;20320;-77
2024/04/25 07:36:37;;;;;;;13.60;6.83;;;;;;;8.32;100.00;99619.84;5486105;25;20305;-77
2024/04/25 07:39:04;;;;;;;12.48;6.90;;;;;;;8.39;100.00;99621.56;5498198;26;20315;-76
2024/04/25 07:41:31;;;;;;;11.57;6.00;;;;;;;8.32;100.00;99619.03;5488440;26;20361;-80
2024/04/25 07:43:59;;;;;;;9.45;5.35;;;;;;;8.20;100.00;99627.19;5518571;26;20464;-77
2024/04/25 07:46:25;;;;;;;9.35;5.47;;;;;;;8.14;100.00;99619.28;5516641;26;20652;-77
2024/04/25 07:48:50;;;;;;;11.02;5.50;;;;;;;8.09;100.00;99613.84;5471710;25;20438;-77
2024/04/25 07:51:16;;;;;;;9.07;5.90;;;;;;;8.10;100.00;99618.97;5470798;26;20442;-76
2024/04/25 07:53:41;;;;;;;9.20;5.75;;;;;;;8.12;100.00;99616.84;5495692;25;20354;-76
2024/04/25 07:56:06;;;;;;;7.97;5.43;;;;;;;8.19;100.00;99620.19;5494830;26;20403;-77
2024/04/25 07:58:32;;;;;;;11.33;5.73;;;;;;;8.29;100.00;99622.25;5504561;26;20304;-77
2024/04/25 08:00:57;;;;;;;8.60;5.60;;;;;;;8.36;100.00;99625.56;5503989;26;20310;-76
2024/04/25 08:03:24;;;;;;;9.20;5.77;;;;;;;8.29;100.00;99620.38;5518282;25;20383;-77
2024/04/25 08:05:50;;;;;;;7.50;5.40;;;;;;;8.27;100.00;99618.94;5485090;25;20328;-77
2024/04/25 08:08:15;;;;;;;9.68;5.93;;;;;;;8.33;100.00;99623.38;5474452;26;20406;-77
2024/04/25 08:10:41;;;;;;;8.00;5.53;;;;;;;8.37;100.00;99623.66;5496830;26;20665;-77
2024/04/25 08:13:06;;;;;;;10.03;5.83;;;;;;;8.36;100.00;99625.56;5469127;26;20330;-77
2024/04/25 08:15:32;;;;;;;8.75;5.22;;;;;;;8.39;100.00;99621.56;5503224;25;20911;-77
2024/04/25 08:17:57;;;;;;;8.77;6.18;;;;;;;8.46;100.00;99617.59;5467773;25;20325;-77
2024/04/25 08:20:22;;;;;;;12.20;6.40;;;;;;;8.53;100.00;99620.91;5477716;26;20325;-77
2024/04/25 08:22:48;;;;;;;7.87;5.30;;;;;;;8.58;100.00;99617.47;5516971;26;20307;-77
2024/04/25 08:25:14;;;;;;;12.87;5.93;;;;;;;8.69;100.00;99619.22;5513041;25;20332;-77
2024/04/25 08:27:39;;;;;;;9.03;5.47;;;;;;;8.81;100.00;99622.59;5483171;26;20329;-77
2024/04/25 08:30:05;;;;;;;7.40;5.60;;;;;;;8.87;100.00;99621.56;5502928;26;20318;-77
2024/04/25 08:32:30;;;;;;;10.77;6.25;;;;;;;8.84;100.00;99622.91;5495898;26;21038;-77
2024/04/25 08:34:55;;;;;;;9.37;5.30;;;;;;;8.74;100.00;99613.88;5518043;25;20922;-77
2024/04/25 08:37:21;;;;;;;10.37;5.50;;;;;;;8.71;100.00;99612.50;5494886;26;20314;-78
2024/04/25 08:39:46;;;;;;;10.18;5.68;;;;;;;8.81;100.00;99615.31;5480633;26;20390;-77
2024/04/25 08:42:14;;;;;;;7.87;5.63;;;;;;;8.87;100.00;99610.75;5494235;26;20326;-78
2024/04/25 08:44:40;;;;;;;12.53;5.83;;;;;;;8.75;100.00;99616.31;5490294;26;20798;-77
2024/04/25 08:47:08;;;;;;;11.90;5.00;;;;;;;8.65;100.00;99618.09;5495303;26;20331;-76
2024/04/25 08:49:35;;;;;;;10.30;5.40;;;;;;;8.67;100.00;99605.13;5474051;25;20359;-77
2024/04/25 08:52:04;;;;;;;8.93;5.70;;;;;;;8.80;100.00;99610.16;5506216;26;20807;-77
2024/04/25 08:54:30;;;;;;;6.07;4.55;;;;;;;8.98;100.00;99609.81;5513990;26;20307;-76
2024/04/25 08:56:56;;;;;;;6.50;4.63;;;;;;;9.06;100.00;99600.41;5508553;25;20320;-78
2024/04/25 08:59:21;;;;;;;8.82;4.63;;;;;;;9.14;100.00;99606.19;5487682;26;20354;-76
2024/04/25 09:01:49;;;;;;;7.90;4.23;;;;;;;9.22;100.00;99607.63;5477133;26;20706;-76
2024/04/25 09:04:19;;;;;;;7.80;4.55;;;;;;;9.15;100.00;99605.13;5489004;26;20327;-77
2024/04/25 09:06:45;;;;;;;8.77;4.88;;;;;;;9.05;100.00;99607.72;5500494;25;20441;-77
2024/04/25 09:09:11;;;;;;;9.13;4.43;;;;;;;8.98;100.00;99604.41;5453211;26;20880;-76
2024/04/25 09:11:38;;;;;;;7.00;4.30;;;;;;;8.97;100.00;99604.66;5483433;26;20329;-77
2024/04/25 09:14:03;;;;;;;7.25;4.45;;;;;;;9.01;100.00;99606.59;5458102;26;20343;-77
2024/04/25 09:16:29;;;;;;;11.80;4.40;;;;;;;9.10;100.00;99605.06;5460795;26;20313;-77
2024/04/25 09:18:54;;;;;;;9.00;3.80;;;;;;;9.21;100.00;99605.97;5464383;26;20320;-77
2024/04/25 09:21:19;;;;;;;9.00;4.80;;;;;;;9.27;100.00;99599.53;5492323;26;20416;-77
2024/04/25 09:23:45;;;;;;;12.20;4.47;;;;;;;9.30;100.00;99601.72;5455288;26;20415;-77
2024/04/25 09:26:13;;;;;;;11.13;4.20;;;;;;;9.35;100.00;99596.38;5470573;26;20664;-76
2024/04/25 09:28:39;;;;;;;9.95;4.30;;;;;;;9.38;100.00;99599.34;5450482;26;20652;-77
2024/04/25 09:31:05;;;;;;;10.13;5.32;;;;;;;9.37;100.00;99605.03;5501522;26;20322;-77
2024/04/25 09:33:31;;;;;;;10.90;5.13;;;;;;;9.39;100.00;99603.69;5478032;26;20314;-77
2024/04/25 09:35:57;;;;;;;14.98;5.70;;;;;;;9.42;100.00;99599.66;5475038;25;20356;-77
2024/04/25 09:38:22;;;;;;;9.63;5.38;;;;;;;9.45;100.00;99587.53;5457763;26;20366;-77
2024/04/25 09:40:49;;;;;;;11.07;5.75;;;;;;;9.44;100.00;99591.28;5480406;26;20332;-77
2024/04/25 09:43:16;;;;;;;11.83;5.07;;;;;;;9.46;100.00;99594.53;5473758;26;21150;-78
2024/04/25 09:45:42;;;;;;;10.37;4.13;;;;;;;9.58;100.00;99590.59;5476438;26;20417;-77
2024/04/25 09:48:16;;;;;;;7.70;3.80;;;;;;;9.70;100.00;99590.41;5454217;26;20323;-77
2024/04/25 09:50:47;;;;;;;11.90;5.07;;;;;;;9.69;100.00;99595.00;5449911;26;20329;-76
2024/04/25 09:53:25;;;;;;;8.00;3.90;;;;;;;9.72;100.00;99588.25;5467691;26;20311;-77
2024/04/25 09:55:50;;;;;;;7.17;3.33;;;;;;;9.77;100.00;99583.72;5494465;26;20410;-77
2024/04/25 09:58:49;;;;;;;9.07;3.77;;;;;;;9.81;100.00;99578.59;5466445;25;20337;-77
2024/04/25 10:01:15;;;;;;;11.83;3.57;;;;;;;9.74;100.00;99586.13;5461606;26;20868;-77
2024/04/25 10:03:41;;;;;;;7.57;3.60;;;;;;;9.59;100.00;99580.59;5462474;26;20314;-77
2024/04/25 10:06:07;;;;;;;8.55;4.07;;;;;;;9.35;100.00;99580.94;5491164;26;20403;-76
2024/04/25 10:08:33;;;;;;;11.00;3.78;;;;;;;9.32;100.00;99580.63;5457895;26;20727;-77
2024/04/25 10:10:59;;;;;;;9.23;3.90;;;;;;;9.34;100.00;99573.09;5483494;26;20398;-77
2024/04/25 10:13:25;;;;;;;14.50;3.85;;;;;;;9.37;100.00;99572.59;5485523;26;20405;-77
2024/04/25 10:15:54;;;;;;;8.82;3.63;;;;;;;9.44;100.00;99564.25;5470473;26;20347;-77
2024/04/25 10:18:19;;;;;;;5.67;3.53;;;;;;;9.78;100.00;99563.66;5459324;26;20371;-77
2024/04/25 10:20:46;;;;;;;8.57;4.00;;;;;;;10.09;100.00;99561.97;5497531;26;20319;-77
2024/04/25 10:23:12;;;;;;;14.82;4.00;;;;;;;10.50;100.00;99556.75;5468342;26;20372;-77
2024/04/25 10:25:37;;;;;;;6.18;3.03;;;;;;;11.27;100.00;99552.00;5459422;26;20324;-76
2024/04/25 10:28:04;;;;;;;8.83;2.93;;;;;;;12.37;100.00;99549.34;5479284;26;20410;-76
2024/04/25 10:30:30;;;;;;;8.52;2.80;;;;;;;11.94;100.00;99553.56;5461304;26;20782;-77
2024/04/25 10:32:56;;;;;;;6.28;2.70;;;;;;;11.30;100.00;99548.72;5474877;26;20454;-77
2024/04/25 10:35:21;;;;;;;6.73;3.00;;;;;;;10.80;100.00;99557.63;5462599;25;21728;-77
2024/04/25 10:37:47;;;;;;;8.80;3.70;;;;;;;10.61;100.00;99550.25;5480450;26;20328;-77
2024/04/25 10:40:15;;;;;;;8.00;3.85;;;;;;;10.44;100.00;99549.69;5460549;26;20692;-77
2024/04/25 10:42:41;;;;;;;6.03;3.33;;;;;;;10.33;100.00;99543.41;5460396;26;20921;-77
2024/04/25 10:45:07;;;;;;;4.27;1.97;;;;;;;11.10;100.00;99542.50;5459713;26;20313;-77
2024/04/25 10:47:33;;;;;;;3.20;1.27;;;;;;;13.11;100.00;99532.06;5467166;26;20364;-77
2024/04/25 10:49:59;;;;;;;2.78;1.58;;;;;;;12.41;100.00;99531.41;5485013;25;20328;-78
2024/04/25 10:52:24;;;;;;;5.30;2.50;;;;;;;11.75;100.00;99537.06;5456909;25;20847;-77
2024/04/25 10:54:50;;;;;;;6.47;2.80;;;;;;;11.30;100.00;99531.63;5477672;26;20326;-78
2024/04/25 10:57:15;;;;;;;5.10;3.35;;;;;;;11.10;100.00;99529.75;5484008;26;20346;-78
2024/04/25 10:59:41;;;;;;;3.60;2.47;;;;;;;11.35;100.00;99529.75;5460554;26;20317;-77
2024/04/25 11:02:08;;;;;;;2.22;1.58;;;;;;;11.67;100.00;99524.00;5480426;26;20316;-77
2024/04/25 11:04:38;;;;;;;2.72;1.60;;;;;;;13.24;100.00;99528.69;5471561;26;20350;-77
2024/04/25 11:07:12;;;;;;;4.72;1.70;;;;;;;16.42;92.32;99522.16;5496803;26;20378;-77
2024/04/25 11:09:38;;;;;;;3.20;0.95;;;;;;;18.17;73.25;99514.59;5462216;26;20309;-77
2024/04/25 11:12:05;;;;;;;2.65;0.93;;;;;;;19.01;69.60;99512.31;5461273;26;20308;-79
2024/04/25 11:14:33;;;;;;;2.13;0.90;;;;;;;19.52;63.78;99497.78;5479140;26;20329;-77
2024/04/25 11:17:00;;;;;;;2.83;1.17;;;;;;;19.42;62.35;99513.78;5468733;26;20308;-76
2024/04/25 11:19:29;;;;;;;4.70;1.17;;;;;;;19.17;59.79;99494.22;5465332;26;20361;-78
2024/04/25 11:21:55;;;;;;;2.95;1.33;;;;;;;19.51;55.97;99503.56;5470476;26;20322;-76
2024/04/25 11:24:22;;;;;;;3.03;1.17;;;;;;;20.41;53.22;99498.72;5463926;26;20350;-77
2024/04/25 11:26:52;;;;;;;4.88;1.20;;;;;;;21.51;47.79;99493.44;5456403;26;20871;-78
2024/04/25 11:29:17;;;;;;;4.25;1.80;;;;;;;20.03;45.44;99499.50;5458343;26;20318;-77
2024/04/25 11:31:43;;;;;;;2.10;1.33;;;;;;;19.09;49.46;99502.47;5480978;26;20319;-77